sensor_id;sensor_type;location;lat;lon;timestamp;P1;durP1;ratioP1;P2;durP2;ratioP2
65753;SDS011;52488;47.502;18.940;2022-11-06T00:00:47;5.15;;;2.25;;
65753;SDS011;52488;47.502;18.940;2022-11-06T00:01:50;2.40;;;2.12;;
65753;SDS011;52488;47.502;18.940;2022-11-06T00:02:55;4.30;;;2.20;;
65753;SDS011;52488;47.502;18.940;2022-11-06T00:04:00;3.35;;;2.42;;
65753;SDS011;52488;47.502;18.940;2022-11-06T00:05:03;3.62;;;2.28;;
65753;SDS011;52488;47.502;18.940;2022-11-06T00:07:46;3.15;;;1.77;;
65753;SDS011;52488;47.502;18.940;2022-11-06T00:08:53;2.80;;;2.00;;
65753;SDS011;52488;47.502;18.940;2022-11-06T00:09:56;1.70;;;1.40;;
65753;SDS011;52488;47.502;18.940;2022-11-06T00:11:13;2.53;;;1.65;;
65753;SDS011;52488;47.502;18.940;2022-11-06T00:12:17;1.83;;;1.65;;
65753;SDS011;52488;47.502;18.940;2022-11-06T00:13:20;2.03;;;1.65;;
65753;SDS011;52488;47.502;18.940;2022-11-06T00:14:23;2.12;;;1.52;;
65753;SDS011;52488;47.502;18.940;2022-11-06T00:15:26;1.85;;;1.60;;
65753;SDS011;52488;47.502;18.940;2022-11-06T00:16:29;1.75;;;1.40;;
65753;SDS011;52488;47.502;18.940;2022-11-06T00:17:33;2.05;;;1.50;;
65753;SDS011;52488;47.502;18.940;2022-11-06T00:18:37;2.60;;;1.67;;
65753;SDS011;52488;47.502;18.940;2022-11-06T00:19:40;2.45;;;1.50;;
65753;SDS011;52488;47.502;18.940;2022-11-06T00:20:43;3.03;;;1.65;;
65753;SDS011;52488;47.502;18.940;2022-11-06T00:21:46;1.50;;;1.40;;
65753;SDS011;52488;47.502;18.940;2022-11-06T00:22:49;2.17;;;1.62;;
65753;SDS011;52488;47.502;18.940;2022-11-06T00:23:52;2.12;;;1.50;;
65753;SDS011;52488;47.502;18.940;2022-11-06T00:24:59;2.12;;;1.60;;
65753;SDS011;52488;47.502;18.940;2022-11-06T00:26:06;1.40;;;1.30;;
65753;SDS011;52488;47.502;18.940;2022-11-06T00:27:10;2.55;;;1.58;;
65753;SDS011;52488;47.502;18.940;2022-11-06T00:28:14;2.10;;;1.65;;
65753;SDS011;52488;47.502;18.940;2022-11-06T00:29:17;1.65;;;1.55;;
65753;SDS011;52488;47.502;18.940;2022-11-06T00:30:20;3.40;;;1.55;;
65753;SDS011;52488;47.502;18.940;2022-11-06T00:31:27;2.40;;;1.83;;
65753;SDS011;52488;47.502;18.940;2022-11-06T00:32:31;2.35;;;1.67;;
65753;SDS011;52488;47.502;18.940;2022-11-06T00:33:34;2.05;;;1.40;;
65753;SDS011;52488;47.502;18.940;2022-11-06T00:34:38;1.98;;;1.52;;
65753;SDS011;52488;47.502;18.940;2022-11-06T00:35:40;1.90;;;1.17;;
65753;SDS011;52488;47.502;18.940;2022-11-06T00:36:44;1.52;;;1.23;;
65753;SDS011;52488;47.502;18.940;2022-11-06T00:37:46;1.70;;;1.37;;
65753;SDS011;52488;47.502;18.940;2022-11-06T00:38:50;2.95;;;1.50;;
65753;SDS011;52488;47.502;18.940;2022-11-06T00:39:54;1.50;;;1.40;;
65753;SDS011;52488;47.502;18.940;2022-11-06T00:41:00;1.67;;;1.25;;
65753;SDS011;52488;47.502;18.940;2022-11-06T00:42:07;2.83;;;1.40;;
65753;SDS011;52488;47.502;18.940;2022-11-06T00:43:17;3.35;;;1.77;;
65753;SDS011;52488;47.502;18.940;2022-11-06T00:44:20;1.87;;;1.58;;
65753;SDS011;52488;47.502;18.940;2022-11-06T00:45:26;2.72;;;1.42;;
65753;SDS011;52488;47.502;18.940;2022-11-06T00:46:29;1.52;;;1.40;;
65753;SDS011;52488;47.502;18.940;2022-11-06T00:47:32;1.90;;;1.40;;
65753;SDS011;52488;47.502;18.940;2022-11-06T00:48:35;3.90;;;1.25;;
65753;SDS011;52488;47.502;18.940;2022-11-06T00:49:39;2.00;;;1.40;;
65753;SDS011;52488;47.502;18.940;2022-11-06T00:50:42;3.53;;;1.27;;
65753;SDS011;52488;47.502;18.940;2022-11-06T00:51:45;1.50;;;1.25;;
65753;SDS011;52488;47.502;18.940;2022-11-06T00:52:47;1.77;;;1.40;;
65753;SDS011;52488;47.502;18.940;2022-11-06T00:53:54;1.27;;;1.17;;
65753;SDS011;52488;47.502;18.940;2022-11-06T00:55:01;2.05;;;1.48;;
65753;SDS011;52488;47.502;18.940;2022-11-06T00:56:09;2.53;;;1.30;;
65753;SDS011;52488;47.502;18.940;2022-11-06T00:57:13;2.12;;;1.50;;
65753;SDS011;52488;47.502;18.940;2022-11-06T00:58:16;1.62;;;1.33;;
65753;SDS011;52488;47.502;18.940;2022-11-06T00:59:19;3.12;;;1.20;;
65753;SDS011;52488;47.502;18.940;2022-11-06T01:00:22;1.80;;;1.27;;
65753;SDS011;52488;47.502;18.940;2022-11-06T01:01:29;2.40;;;1.23;;
65753;SDS011;52488;47.502;18.940;2022-11-06T01:02:43;1.27;;;1.10;;
65753;SDS011;52488;47.502;18.940;2022-11-06T01:03:51;1.65;;;1.15;;
65753;SDS011;52488;47.502;18.940;2022-11-06T01:04:55;1.00;;;0.95;;
65753;SDS011;52488;47.502;18.940;2022-11-06T01:06:10;1.90;;;1.27;;
65753;SDS011;52488;47.502;18.940;2022-11-06T01:07:15;1.90;;;1.30;;
65753;SDS011;52488;47.502;18.940;2022-11-06T01:08:18;1.27;;;1.12;;
65753;SDS011;52488;47.502;18.940;2022-11-06T01:09:22;1.08;;;0.98;;
65753;SDS011;52488;47.502;18.940;2022-11-06T01:10:27;2.45;;;1.10;;
65753;SDS011;52488;47.502;18.940;2022-11-06T01:11:31;1.25;;;1.00;;
65753;SDS011;52488;47.502;18.940;2022-11-06T01:12:56;3.95;;;1.12;;
65753;SDS011;52488;47.502;18.940;2022-11-06T01:13:59;1.55;;;1.02;;
65753;SDS011;52488;47.502;18.940;2022-11-06T01:15:04;2.45;;;1.20;;
65753;SDS011;52488;47.502;18.940;2022-11-06T01:16:11;1.27;;;1.17;;
65753;SDS011;52488;47.502;18.940;2022-11-06T01:17:16;0.85;;;0.82;;
65753;SDS011;52488;47.502;18.940;2022-11-06T01:18:19;1.27;;;1.17;;
65753;SDS011;52488;47.502;18.940;2022-11-06T01:19:26;4.65;;;0.90;;
65753;SDS011;52488;47.502;18.940;2022-11-06T01:20:29;2.05;;;0.90;;
65753;SDS011;52488;47.502;18.940;2022-11-06T01:21:33;2.40;;;1.20;;
65753;SDS011;52488;47.502;18.940;2022-11-06T01:22:37;1.37;;;0.95;;
65753;SDS011;52488;47.502;18.940;2022-11-06T01:23:40;1.27;;;1.17;;
65753;SDS011;52488;47.502;18.940;2022-11-06T01:24:44;4.30;;;1.67;;
65753;SDS011;52488;47.502;18.940;2022-11-06T01:25:57;1.87;;;1.08;;
65753;SDS011;52488;47.502;18.940;2022-11-06T01:27:01;1.70;;;1.00;;
65753;SDS011;52488;47.502;18.940;2022-11-06T01:28:24;1.67;;;1.10;;
65753;SDS011;52488;47.502;18.940;2022-11-06T01:29:28;1.85;;;1.30;;
65753;SDS011;52488;47.502;18.940;2022-11-06T01:30:34;2.10;;;1.30;;
65753;SDS011;52488;47.502;18.940;2022-11-06T01:31:38;2.03;;;1.15;;
65753;SDS011;52488;47.502;18.940;2022-11-06T01:32:41;1.20;;;1.02;;
65753;SDS011;52488;47.502;18.940;2022-11-06T01:33:44;1.45;;;1.15;;
65753;SDS011;52488;47.502;18.940;2022-11-06T01:34:49;1.40;;;1.10;;
65753;SDS011;52488;47.502;18.940;2022-11-06T01:35:53;1.40;;;1.30;;
65753;SDS011;52488;47.502;18.940;2022-11-06T01:36:59;2.33;;;1.60;;
65753;SDS011;52488;47.502;18.940;2022-11-06T01:38:02;1.30;;;1.10;;
65753;SDS011;52488;47.502;18.940;2022-11-06T01:39:05;1.42;;;1.10;;
65753;SDS011;52488;47.502;18.940;2022-11-06T01:40:13;2.00;;;1.20;;
65753;SDS011;52488;47.502;18.940;2022-11-06T01:41:17;2.50;;;1.20;;
65753;SDS011;52488;47.502;18.940;2022-11-06T01:42:21;1.62;;;1.10;;
65753;SDS011;52488;47.502;18.940;2022-11-06T01:43:41;2.28;;;1.20;;
65753;SDS011;52488;47.502;18.940;2022-11-06T01:46:23;2.35;;;1.35;;
65753;SDS011;52488;47.502;18.940;2022-11-06T01:47:28;2.15;;;1.30;;
65753;SDS011;52488;47.502;18.940;2022-11-06T01:48:31;1.20;;;1.10;;
65753;SDS011;52488;47.502;18.940;2022-11-06T01:49:35;3.65;;;1.10;;
65753;SDS011;52488;47.502;18.940;2022-11-06T01:50:41;1.52;;;1.05;;
65753;SDS011;52488;47.502;18.940;2022-11-06T01:51:47;3.25;;;1.40;;
65753;SDS011;52488;47.502;18.940;2022-11-06T01:52:54;2.30;;;1.20;;
65753;SDS011;52488;47.502;18.940;2022-11-06T01:53:58;1.35;;;1.08;;
65753;SDS011;52488;47.502;18.940;2022-11-06T01:55:15;2.50;;;1.05;;
65753;SDS011;52488;47.502;18.940;2022-11-06T01:56:22;2.75;;;1.12;;
65753;SDS011;52488;47.502;18.940;2022-11-06T01:57:26;1.45;;;1.30;;
65753;SDS011;52488;47.502;18.940;2022-11-06T01:58:30;2.50;;;1.50;;
65753;SDS011;52488;47.502;18.940;2022-11-06T01:59:36;1.80;;;1.23;;
65753;SDS011;52488;47.502;18.940;2022-11-06T02:00:42;1.10;;;1.00;;
65753;SDS011;52488;47.502;18.940;2022-11-06T02:01:46;2.28;;;1.00;;
65753;SDS011;52488;47.502;18.940;2022-11-06T02:02:49;1.52;;;1.33;;
65753;SDS011;52488;47.502;18.940;2022-11-06T02:03:57;0.90;;;0.90;;
65753;SDS011;52488;47.502;18.940;2022-11-06T02:05:06;1.35;;;0.90;;
65753;SDS011;52488;47.502;18.940;2022-11-06T02:06:09;1.35;;;1.25;;
65753;SDS011;52488;47.502;18.940;2022-11-06T02:07:13;1.73;;;1.20;;
65753;SDS011;52488;47.502;18.940;2022-11-06T02:08:17;1.35;;;1.17;;
65753;SDS011;52488;47.502;18.940;2022-11-06T02:09:22;3.17;;;1.50;;
65753;SDS011;52488;47.502;18.940;2022-11-06T02:10:26;1.10;;;1.00;;
65753;SDS011;52488;47.502;18.940;2022-11-06T02:11:31;1.17;;;1.00;;
65753;SDS011;52488;47.502;18.940;2022-11-06T02:14:13;1.73;;;1.17;;
65753;SDS011;52488;47.502;18.940;2022-11-06T02:15:25;1.17;;;1.00;;
65753;SDS011;52488;47.502;18.940;2022-11-06T02:16:48;1.92;;;1.10;;
65753;SDS011;52488;47.502;18.940;2022-11-06T02:20:45;1.62;;;1.17;;
65753;SDS011;52488;47.502;18.940;2022-11-06T02:25:07;2.10;;;1.05;;
65753;SDS011;52488;47.502;18.940;2022-11-06T02:26:28;1.35;;;1.10;;
65753;SDS011;52488;47.502;18.940;2022-11-06T02:27:57;2.55;;;1.10;;
65753;SDS011;52488;47.502;18.940;2022-11-06T02:29:08;1.60;;;1.20;;
65753;SDS011;52488;47.502;18.940;2022-11-06T02:30:18;1.60;;;1.08;;
65753;SDS011;52488;47.502;18.940;2022-11-06T02:31:29;1.45;;;1.20;;
65753;SDS011;52488;47.502;18.940;2022-11-06T02:34:01;1.15;;;0.90;;
65753;SDS011;52488;47.502;18.940;2022-11-06T02:36:29;2.10;;;0.95;;
65753;SDS011;52488;47.502;18.940;2022-11-06T02:37:36;2.85;;;1.12;;
65753;SDS011;52488;47.502;18.940;2022-11-06T02:38:44;0.93;;;0.82;;
65753;SDS011;52488;47.502;18.940;2022-11-06T02:39:51;1.37;;;1.05;;
65753;SDS011;52488;47.502;18.940;2022-11-06T02:40:57;1.45;;;1.35;;
65753;SDS011;52488;47.502;18.940;2022-11-06T02:42:04;1.27;;;1.00;;
65753;SDS011;52488;47.502;18.940;2022-11-06T02:43:10;1.00;;;0.93;;
65753;SDS011;52488;47.502;18.940;2022-11-06T02:44:19;0.88;;;0.75;;
65753;SDS011;52488;47.502;18.940;2022-11-06T02:45:26;2.20;;;1.05;;
65753;SDS011;52488;47.502;18.940;2022-11-06T02:46:34;1.42;;;0.98;;
65753;SDS011;52488;47.502;18.940;2022-11-06T02:47:45;1.30;;;0.98;;
65753;SDS011;52488;47.502;18.940;2022-11-06T02:48:55;1.00;;;0.90;;
65753;SDS011;52488;47.502;18.940;2022-11-06T02:50:04;1.27;;;1.10;;
65753;SDS011;52488;47.502;18.940;2022-11-06T02:51:13;1.20;;;1.10;;
65753;SDS011;52488;47.502;18.940;2022-11-06T02:52:38;3.35;;;1.00;;
65753;SDS011;52488;47.502;18.940;2022-11-06T02:53:46;0.80;;;0.80;;
65753;SDS011;52488;47.502;18.940;2022-11-06T02:56:14;1.77;;;1.10;;
65753;SDS011;52488;47.502;18.940;2022-11-06T02:57:21;1.23;;;1.00;;
65753;SDS011;52488;47.502;18.940;2022-11-06T02:58:38;4.35;;;1.42;;
65753;SDS011;52488;47.502;18.940;2022-11-06T02:59:58;1.37;;;0.98;;
65753;SDS011;52488;47.502;18.940;2022-11-06T03:01:18;1.48;;;0.90;;
65753;SDS011;52488;47.502;18.940;2022-11-06T03:04:27;2.83;;;1.30;;
65753;SDS011;52488;47.502;18.940;2022-11-06T03:05:47;2.47;;;0.95;;
65753;SDS011;52488;47.502;18.940;2022-11-06T03:09:36;1.80;;;1.17;;
65753;SDS011;52488;47.502;18.940;2022-11-06T03:10:42;4.53;;;1.23;;
65753;SDS011;52488;47.502;18.940;2022-11-06T03:12:18;1.67;;;0.93;;
65753;SDS011;52488;47.502;18.940;2022-11-06T03:13:38;1.25;;;1.00;;
65753;SDS011;52488;47.502;18.940;2022-11-06T03:16:16;1.12;;;1.00;;
65753;SDS011;52488;47.502;18.940;2022-11-06T03:17:45;1.77;;;1.27;;
65753;SDS011;52488;47.502;18.940;2022-11-06T03:20:15;1.30;;;1.15;;
65753;SDS011;52488;47.502;18.940;2022-11-06T03:21:38;2.35;;;1.15;;
65753;SDS011;52488;47.502;18.940;2022-11-06T03:22:53;1.73;;;1.37;;
65753;SDS011;52488;47.502;18.940;2022-11-06T03:24:17;2.03;;;1.50;;
65753;SDS011;52488;47.502;18.940;2022-11-06T03:25:39;2.40;;;1.42;;
65753;SDS011;52488;47.502;18.940;2022-11-06T03:26:47;1.33;;;1.10;;
65753;SDS011;52488;47.502;18.940;2022-11-06T03:30:44;3.08;;;1.40;;
65753;SDS011;52488;47.502;18.940;2022-11-06T03:31:58;2.58;;;1.62;;
65753;SDS011;52488;47.502;18.940;2022-11-06T03:34:28;2.12;;;1.60;;
65753;SDS011;52488;47.502;18.940;2022-11-06T03:35:59;1.80;;;1.33;;
65753;SDS011;52488;47.502;18.940;2022-11-06T03:37:15;1.58;;;1.30;;
65753;SDS011;52488;47.502;18.940;2022-11-06T03:38:24;1.92;;;1.30;;
65753;SDS011;52488;47.502;18.940;2022-11-06T03:39:47;1.92;;;1.27;;
65753;SDS011;52488;47.502;18.940;2022-11-06T03:40:57;2.28;;;1.20;;
65753;SDS011;52488;47.502;18.940;2022-11-06T03:42:09;1.90;;;1.30;;
65753;SDS011;52488;47.502;18.940;2022-11-06T03:44:23;3.78;;;1.20;;
65753;SDS011;52488;47.502;18.940;2022-11-06T03:45:30;2.53;;;1.40;;
65753;SDS011;52488;47.502;18.940;2022-11-06T03:46:35;2.53;;;1.10;;
65753;SDS011;52488;47.502;18.940;2022-11-06T03:47:46;3.03;;;1.33;;
65753;SDS011;52488;47.502;18.940;2022-11-06T03:48:59;2.10;;;1.27;;
65753;SDS011;52488;47.502;18.940;2022-11-06T03:50:09;1.62;;;1.15;;
65753;SDS011;52488;47.502;18.940;2022-11-06T03:51:16;1.52;;;1.30;;
65753;SDS011;52488;47.502;18.940;2022-11-06T03:52:31;1.08;;;0.90;;
65753;SDS011;52488;47.502;18.940;2022-11-06T03:53:43;2.47;;;1.37;;
65753;SDS011;52488;47.502;18.940;2022-11-06T03:54:59;1.45;;;1.35;;
65753;SDS011;52488;47.502;18.940;2022-11-06T03:56:08;2.50;;;1.20;;
65753;SDS011;52488;47.502;18.940;2022-11-06T03:57:24;2.10;;;1.00;;
65753;SDS011;52488;47.502;18.940;2022-11-06T03:58:35;1.23;;;1.00;;
65753;SDS011;52488;47.502;18.940;2022-11-06T03:59:42;1.70;;;1.30;;
65753;SDS011;52488;47.502;18.940;2022-11-06T04:00:50;1.40;;;1.27;;
65753;SDS011;52488;47.502;18.940;2022-11-06T04:01:56;2.60;;;1.48;;
65753;SDS011;52488;47.502;18.940;2022-11-06T04:03:03;1.37;;;1.20;;
65753;SDS011;52488;47.502;18.940;2022-11-06T04:04:18;1.35;;;1.20;;
65753;SDS011;52488;47.502;18.940;2022-11-06T04:05:22;1.92;;;1.23;;
65753;SDS011;52488;47.502;18.940;2022-11-06T04:06:30;4.15;;;1.40;;
65753;SDS011;52488;47.502;18.940;2022-11-06T04:07:41;1.70;;;1.25;;
65753;SDS011;52488;47.502;18.940;2022-11-06T04:09:11;4.50;;;1.30;;
65753;SDS011;52488;47.502;18.940;2022-11-06T04:10:36;1.90;;;1.27;;
65753;SDS011;52488;47.502;18.940;2022-11-06T04:12:02;1.80;;;1.40;;
65753;SDS011;52488;47.502;18.940;2022-11-06T04:13:25;2.33;;;1.40;;
65753;SDS011;52488;47.502;18.940;2022-11-06T04:14:51;1.87;;;1.25;;
65753;SDS011;52488;47.502;18.940;2022-11-06T04:15:56;1.52;;;1.20;;
65753;SDS011;52488;47.502;18.940;2022-11-06T04:17:01;1.80;;;1.40;;
65753;SDS011;52488;47.502;18.940;2022-11-06T04:18:13;3.12;;;1.37;;
65753;SDS011;52488;47.502;18.940;2022-11-06T04:19:21;1.75;;;1.40;;
65753;SDS011;52488;47.502;18.940;2022-11-06T04:20:24;1.73;;;1.45;;
65753;SDS011;52488;47.502;18.940;2022-11-06T04:22:04;1.30;;;1.20;;
65753;SDS011;52488;47.502;18.940;2022-11-06T04:23:31;1.35;;;1.25;;
65753;SDS011;52488;47.502;18.940;2022-11-06T04:24:45;3.53;;;1.45;;
65753;SDS011;52488;47.502;18.940;2022-11-06T04:26:24;3.58;;;1.30;;
65753;SDS011;52488;47.502;18.940;2022-11-06T04:30:15;3.20;;;1.30;;
65753;SDS011;52488;47.502;18.940;2022-11-06T04:34:46;1.75;;;1.20;;
65753;SDS011;52488;47.502;18.940;2022-11-06T04:36:01;1.85;;;1.30;;
65753;SDS011;52488;47.502;18.940;2022-11-06T04:37:46;2.30;;;1.45;;
65753;SDS011;52488;47.502;18.940;2022-11-06T04:41:27;4.05;;;1.45;;
65753;SDS011;52488;47.502;18.940;2022-11-06T04:42:56;2.12;;;1.77;;
65753;SDS011;52488;47.502;18.940;2022-11-06T04:44:04;2.15;;;1.80;;
65753;SDS011;52488;47.502;18.940;2022-11-06T04:45:13;3.60;;;1.70;;
65753;SDS011;52488;47.502;18.940;2022-11-06T04:46:27;1.83;;;1.60;;
65753;SDS011;52488;47.502;18.940;2022-11-06T04:47:34;1.80;;;1.52;;
65753;SDS011;52488;47.502;18.940;2022-11-06T04:48:38;2.50;;;1.80;;
65753;SDS011;52488;47.502;18.940;2022-11-06T04:49:42;2.37;;;2.00;;
65753;SDS011;52488;47.502;18.940;2022-11-06T04:50:49;6.07;;;1.83;;
65753;SDS011;52488;47.502;18.940;2022-11-06T04:51:55;2.30;;;1.65;;
65753;SDS011;52488;47.502;18.940;2022-11-06T04:53:00;3.08;;;2.10;;
65753;SDS011;52488;47.502;18.940;2022-11-06T04:54:06;3.25;;;2.10;;
65753;SDS011;52488;47.502;18.940;2022-11-06T04:55:11;4.50;;;2.33;;
65753;SDS011;52488;47.502;18.940;2022-11-06T04:56:19;3.47;;;2.22;;
65753;SDS011;52488;47.502;18.940;2022-11-06T04:57:27;4.82;;;2.30;;
65753;SDS011;52488;47.502;18.940;2022-11-06T04:58:30;3.42;;;2.47;;
65753;SDS011;52488;47.502;18.940;2022-11-06T04:59:34;3.70;;;2.60;;
65753;SDS011;52488;47.502;18.940;2022-11-06T05:00:38;7.07;;;2.90;;
65753;SDS011;52488;47.502;18.940;2022-11-06T05:01:46;5.05;;;2.55;;
65753;SDS011;52488;47.502;18.940;2022-11-06T05:02:49;2.65;;;2.17;;
65753;SDS011;52488;47.502;18.940;2022-11-06T05:03:52;3.10;;;2.35;;
65753;SDS011;52488;47.502;18.940;2022-11-06T05:04:55;5.45;;;2.30;;
65753;SDS011;52488;47.502;18.940;2022-11-06T05:05:57;2.70;;;2.37;;
65753;SDS011;52488;47.502;18.940;2022-11-06T05:07:00;4.78;;;2.47;;
65753;SDS011;52488;47.502;18.940;2022-11-06T05:08:03;4.10;;;2.55;;
65753;SDS011;52488;47.502;18.940;2022-11-06T05:09:06;6.22;;;3.03;;
65753;SDS011;52488;47.502;18.940;2022-11-06T05:10:09;4.30;;;2.70;;
65753;SDS011;52488;47.502;18.940;2022-11-06T05:11:16;3.42;;;2.50;;
65753;SDS011;52488;47.502;18.940;2022-11-06T05:12:19;3.97;;;2.25;;
65753;SDS011;52488;47.502;18.940;2022-11-06T05:13:22;3.75;;;2.25;;
65753;SDS011;52488;47.502;18.940;2022-11-06T05:14:24;3.67;;;2.75;;
65753;SDS011;52488;47.502;18.940;2022-11-06T05:15:27;6.22;;;2.42;;
65753;SDS011;52488;47.502;18.940;2022-11-06T05:16:30;5.55;;;2.85;;
65753;SDS011;52488;47.502;18.940;2022-11-06T05:17:33;3.33;;;2.65;;
65753;SDS011;52488;47.502;18.940;2022-11-06T05:18:38;3.80;;;2.50;;
65753;SDS011;52488;47.502;18.940;2022-11-06T05:19:41;3.55;;;2.50;;
65753;SDS011;52488;47.502;18.940;2022-11-06T05:20:44;4.53;;;2.90;;
65753;SDS011;52488;47.502;18.940;2022-11-06T05:21:47;3.45;;;2.70;;
65753;SDS011;52488;47.502;18.940;2022-11-06T05:23:08;3.67;;;1.92;;
65753;SDS011;52488;47.502;18.940;2022-11-06T05:24:11;3.65;;;2.33;;
65753;SDS011;52488;47.502;18.940;2022-11-06T05:25:15;5.22;;;2.62;;
65753;SDS011;52488;47.502;18.940;2022-11-06T05:26:18;4.00;;;2.47;;
65753;SDS011;52488;47.502;18.940;2022-11-06T05:27:21;3.10;;;2.33;;
65753;SDS011;52488;47.502;18.940;2022-11-06T05:28:24;4.00;;;2.75;;
65753;SDS011;52488;47.502;18.940;2022-11-06T05:29:27;3.65;;;2.53;;
65753;SDS011;52488;47.502;18.940;2022-11-06T05:30:30;3.83;;;2.42;;
65753;SDS011;52488;47.502;18.940;2022-11-06T05:31:33;4.95;;;2.72;;
65753;SDS011;52488;47.502;18.940;2022-11-06T05:32:42;3.75;;;2.50;;
65753;SDS011;52488;47.502;18.940;2022-11-06T05:33:45;5.30;;;2.87;;
65753;SDS011;52488;47.502;18.940;2022-11-06T05:34:48;4.60;;;3.10;;
65753;SDS011;52488;47.502;18.940;2022-11-06T05:35:51;4.55;;;2.70;;
65753;SDS011;52488;47.502;18.940;2022-11-06T05:36:55;5.05;;;2.75;;
65753;SDS011;52488;47.502;18.940;2022-11-06T05:38:01;4.15;;;2.60;;
65753;SDS011;52488;47.502;18.940;2022-11-06T05:39:04;3.83;;;2.42;;
65753;SDS011;52488;47.502;18.940;2022-11-06T05:40:07;3.87;;;3.00;;
65753;SDS011;52488;47.502;18.940;2022-11-06T05:41:11;4.75;;;2.83;;
65753;SDS011;52488;47.502;18.940;2022-11-06T05:42:14;3.75;;;2.50;;
65753;SDS011;52488;47.502;18.940;2022-11-06T05:43:17;4.82;;;2.40;;
65753;SDS011;52488;47.502;18.940;2022-11-06T05:44:20;3.47;;;2.72;;
65753;SDS011;52488;47.502;18.940;2022-11-06T05:45:23;4.05;;;2.67;;
65753;SDS011;52488;47.502;18.940;2022-11-06T05:46:26;3.78;;;2.50;;
65753;SDS011;52488;47.502;18.940;2022-11-06T05:47:49;3.78;;;2.40;;
65753;SDS011;52488;47.502;18.940;2022-11-06T05:48:52;3.92;;;2.55;;
65753;SDS011;52488;47.502;18.940;2022-11-06T05:49:55;4.55;;;2.90;;
65753;SDS011;52488;47.502;18.940;2022-11-06T05:51:01;5.00;;;2.85;;
65753;SDS011;52488;47.502;18.940;2022-11-06T05:52:05;4.10;;;2.37;;
65753;SDS011;52488;47.502;18.940;2022-11-06T05:53:08;3.30;;;2.15;;
65753;SDS011;52488;47.502;18.940;2022-11-06T05:54:11;5.78;;;2.40;;
65753;SDS011;52488;47.502;18.940;2022-11-06T05:55:14;3.47;;;2.70;;
65753;SDS011;52488;47.502;18.940;2022-11-06T05:56:16;4.07;;;2.62;;
65753;SDS011;52488;47.502;18.940;2022-11-06T05:57:20;3.83;;;2.47;;
65753;SDS011;52488;47.502;18.940;2022-11-06T05:58:23;2.62;;;2.20;;
65753;SDS011;52488;47.502;18.940;2022-11-06T05:59:26;5.82;;;2.42;;
65753;SDS011;52488;47.502;18.940;2022-11-06T06:00:28;2.72;;;2.20;;
65753;SDS011;52488;47.502;18.940;2022-11-06T06:01:31;4.37;;;2.10;;
65753;SDS011;52488;47.502;18.940;2022-11-06T06:02:35;3.25;;;2.25;;
65753;SDS011;52488;47.502;18.940;2022-11-06T06:03:38;3.17;;;2.10;;
65753;SDS011;52488;47.502;18.940;2022-11-06T06:04:41;2.87;;;2.00;;
65753;SDS011;52488;47.502;18.940;2022-11-06T06:05:44;3.65;;;2.45;;
65753;SDS011;52488;47.502;18.940;2022-11-06T06:06:48;3.87;;;2.45;;
65753;SDS011;52488;47.502;18.940;2022-11-06T06:07:51;4.32;;;2.20;;
65753;SDS011;52488;47.502;18.940;2022-11-06T06:08:54;3.35;;;2.20;;
65753;SDS011;52488;47.502;18.940;2022-11-06T06:09:56;5.53;;;2.28;;
65753;SDS011;52488;47.502;18.940;2022-11-06T06:10:59;4.10;;;2.10;;
65753;SDS011;52488;47.502;18.940;2022-11-06T06:12:07;7.90;;;2.25;;
65753;SDS011;52488;47.502;18.940;2022-11-06T06:13:13;3.45;;;2.22;;
65753;SDS011;52488;47.502;18.940;2022-11-06T06:14:17;3.80;;;2.35;;
65753;SDS011;52488;47.502;18.940;2022-11-06T06:15:20;3.20;;;2.37;;
65753;SDS011;52488;47.502;18.940;2022-11-06T06:16:23;3.67;;;2.40;;
65753;SDS011;52488;47.502;18.940;2022-11-06T06:17:26;2.90;;;2.40;;
65753;SDS011;52488;47.502;18.940;2022-11-06T06:18:29;5.82;;;2.53;;
65753;SDS011;52488;47.502;18.940;2022-11-06T06:19:32;3.65;;;2.55;;
65753;SDS011;52488;47.502;18.940;2022-11-06T06:20:35;3.95;;;2.55;;
65753;SDS011;52488;47.502;18.940;2022-11-06T06:21:38;5.68;;;2.83;;
65753;SDS011;52488;47.502;18.940;2022-11-06T06:22:41;3.17;;;2.35;;
65753;SDS011;52488;47.502;18.940;2022-11-06T06:23:44;4.93;;;2.95;;
65753;SDS011;52488;47.502;18.940;2022-11-06T06:24:47;4.05;;;2.50;;
65753;SDS011;52488;47.502;18.940;2022-11-06T06:25:50;3.78;;;2.50;;
65753;SDS011;52488;47.502;18.940;2022-11-06T06:26:53;3.78;;;2.58;;
65753;SDS011;52488;47.502;18.940;2022-11-06T06:27:56;3.50;;;2.58;;
65753;SDS011;52488;47.502;18.940;2022-11-06T06:28:59;3.95;;;2.90;;
65753;SDS011;52488;47.502;18.940;2022-11-06T06:30:03;4.12;;;2.90;;
65753;SDS011;52488;47.502;18.940;2022-11-06T06:31:06;4.70;;;2.83;;
65753;SDS011;52488;47.502;18.940;2022-11-06T06:32:10;4.32;;;2.90;;
65753;SDS011;52488;47.502;18.940;2022-11-06T06:33:13;6.15;;;2.62;;
65753;SDS011;52488;47.502;18.940;2022-11-06T06:34:16;3.67;;;2.75;;
65753;SDS011;52488;47.502;18.940;2022-11-06T06:35:19;5.32;;;2.97;;
65753;SDS011;52488;47.502;18.940;2022-11-06T06:36:22;5.93;;;3.12;;
65753;SDS011;52488;47.502;18.940;2022-11-06T06:37:25;3.25;;;2.53;;
65753;SDS011;52488;47.502;18.940;2022-11-06T06:38:28;3.67;;;2.78;;
65753;SDS011;52488;47.502;18.940;2022-11-06T06:39:31;4.12;;;2.97;;
65753;SDS011;52488;47.502;18.940;2022-11-06T06:40:34;5.28;;;3.00;;
65753;SDS011;52488;47.502;18.940;2022-11-06T06:41:37;7.97;;;3.17;;
65753;SDS011;52488;47.502;18.940;2022-11-06T06:42:40;6.78;;;3.12;;
65753;SDS011;52488;47.502;18.940;2022-11-06T06:43:43;3.60;;;2.75;;
65753;SDS011;52488;47.502;18.940;2022-11-06T06:44:53;6.15;;;3.42;;
65753;SDS011;52488;47.502;18.940;2022-11-06T06:45:57;8.02;;;3.50;;
65753;SDS011;52488;47.502;18.940;2022-11-06T06:47:00;5.87;;;3.62;;
65753;SDS011;52488;47.502;18.940;2022-11-06T06:48:04;4.50;;;3.22;;
65753;SDS011;52488;47.502;18.940;2022-11-06T06:49:07;6.40;;;2.72;;
65753;SDS011;52488;47.502;18.940;2022-11-06T06:50:13;6.28;;;3.22;;
65753;SDS011;52488;47.502;18.940;2022-11-06T06:51:16;5.62;;;3.25;;
65753;SDS011;52488;47.502;18.940;2022-11-06T06:52:25;6.35;;;3.42;;
65753;SDS011;52488;47.502;18.940;2022-11-06T06:53:28;5.87;;;2.83;;
65753;SDS011;52488;47.502;18.940;2022-11-06T06:54:31;4.18;;;3.20;;
65753;SDS011;52488;47.502;18.940;2022-11-06T06:55:37;3.83;;;2.83;;
65753;SDS011;52488;47.502;18.940;2022-11-06T06:56:39;5.82;;;2.90;;
65753;SDS011;52488;47.502;18.940;2022-11-06T06:57:42;3.83;;;2.78;;
65753;SDS011;52488;47.502;18.940;2022-11-06T06:58:51;4.05;;;2.70;;
65753;SDS011;52488;47.502;18.940;2022-11-06T06:59:55;7.35;;;3.08;;
65753;SDS011;52488;47.502;18.940;2022-11-06T07:00:59;5.50;;;2.87;;
65753;SDS011;52488;47.502;18.940;2022-11-06T07:02:03;4.40;;;3.00;;
65753;SDS011;52488;47.502;18.940;2022-11-06T07:03:06;4.65;;;3.08;;
65753;SDS011;52488;47.502;18.940;2022-11-06T07:04:09;4.78;;;3.30;;
65753;SDS011;52488;47.502;18.940;2022-11-06T07:05:12;5.75;;;2.90;;
65753;SDS011;52488;47.502;18.940;2022-11-06T07:06:16;4.30;;;3.10;;
65753;SDS011;52488;47.502;18.940;2022-11-06T07:07:20;4.28;;;3.03;;
65753;SDS011;52488;47.502;18.940;2022-11-06T07:08:24;7.22;;;3.25;;
65753;SDS011;52488;47.502;18.940;2022-11-06T07:09:28;3.60;;;2.60;;
65753;SDS011;52488;47.502;18.940;2022-11-06T07:10:32;4.45;;;3.10;;
65753;SDS011;52488;47.502;18.940;2022-11-06T07:11:35;4.65;;;2.95;;
65753;SDS011;52488;47.502;18.940;2022-11-06T07:12:38;4.28;;;3.12;;
65753;SDS011;52488;47.502;18.940;2022-11-06T07:13:41;5.28;;;3.42;;
65753;SDS011;52488;47.502;18.940;2022-11-06T07:14:44;5.22;;;3.00;;